Time;durP1;ratioP1;P1;durP2;ratioP2;P2;SDS_P1;SDS_P2;PMS_P1;PMS_P2;Temp;Humidity;BMP_temperature;BMP_pressure;BME280_temperature;BME280_humidity;BME280_pressure;Samples;Min_cycle;Max_cycle;Signal;HPM_P1;HPM_P2
2023/08/19 00:01:27;;;;;;;6.63;5.50;;;;;;;-143.84;61.63;45039.53;5050099;28;20504;-55
2023/08/19 00:03:55;;;;;;;7.93;5.23;;;;;;;-143.84;61.48;45035.75;5049886;28;20844;-55
2023/08/19 00:06:36;;;;;;;7.50;4.73;;;;;;;-143.84;61.05;45018.59;5049683;28;20442;-54
2023/08/19 00:09:07;;;;;;;17.07;5.83;;;;;;;-143.84;61.18;45009.09;5049845;28;20510;-54
2023/08/19 00:11:35;;;;;;;6.20;5.23;;;;;;;-143.84;60.85;45018.59;5049611;28;20456;-54
2023/08/19 00:14:03;;;;;;;7.20;4.90;;;;;;;-143.84;60.67;45007.19;5049529;28;20931;-54
2023/08/19 00:16:30;;;;;;;5.57;5.03;;;;;;;-143.84;60.83;45009.09;5049348;28;20450;-54
2023/08/19 00:18:57;;;;;;;5.30;4.80;;;;;;;-143.84;60.98;45030.03;5049883;28;20952;-54
2023/08/19 00:21:25;;;;;;;11.93;4.87;;;;;;;-143.84;60.68;45028.13;5049376;28;20495;-54
2023/08/19 00:23:52;;;;;;;14.60;4.43;;;;;;;-143.84;60.83;45028.13;5049499;28;20491;-54
2023/08/19 00:26:20;;;;;;;18.37;5.60;;;;;;;-143.84;61.09;45028.13;5049389;28;20441;-55
2023/08/19 00:28:47;;;;;;;6.60;4.93;;;;;;;-143.84;61.20;45028.13;5049233;28;20449;-54
2023/08/19 00:31:15;;;;;;;11.37;5.20;;;;;;;-143.84;61.46;44993.84;5048905;28;20481;-54
2023/08/19 00:33:42;;;;;;;6.07;4.97;;;;;;;-143.84;61.60;45003.38;5049301;28;20441;-54
2023/08/19 00:36:09;;;;;;;7.97;5.23;;;;;;;-143.84;62.06;45018.59;5049264;28;20435;-55
2023/08/19 00:38:36;;;;;;;10.40;4.53;;;;;;;-143.84;62.40;45022.41;5049206;28;20450;-55
2023/08/19 00:41:04;;;;;;;8.30;4.53;;;;;;;-143.84;62.32;45020.50;5049162;28;20450;-55
2023/08/19 00:43:32;;;;;;;5.07;4.63;;;;;;;-143.84;62.81;45014.78;5049233;28;20488;-54
2023/08/19 00:45:59;;;;;;;13.93;5.10;;;;;;;-143.84;63.35;45028.13;5049419;28;20880;-54
2023/08/19 00:48:27;;;;;;;9.70;5.17;;;;;;;-143.84;63.58;44995.75;5049116;28;20433;-54
2023/08/19 00:50:57;;;;;;;21.00;5.37;;;;;;;-143.84;64.20;45012.88;5048863;28;20481;-55
2023/08/19 00:53:24;;;;;;;5.30;4.80;;;;;;;-143.84;64.55;45030.03;5049161;28;20810;-54
2023/08/19 00:55:53;;;;;;;5.87;5.27;;;;;;;-143.84;64.96;45031.94;5048775;28;20507;-54
2023/08/19 00:58:20;;;;;;;7.17;4.97;;;;;;;-143.84;65.28;45016.69;5048485;28;20818;-55
2023/08/19 01:00:50;;;;;;;7.47;4.67;;;;;;;-143.84;66.02;45022.41;5048738;28;20430;-54
2023/08/19 01:03:17;;;;;;;8.77;5.57;;;;;;;-143.84;66.67;45026.22;5048803;28;20445;-54
2023/08/19 01:05:53;;;;;;;14.10;5.30;;;;;;;-143.84;67.35;45043.34;5049021;28;20430;-54
2023/08/19 01:08:29;;;;;;;8.17;5.37;;;;;;;-143.84;67.60;45047.16;5048831;28;20438;-54
2023/08/19 01:11:06;;;;;;;12.10;6.40;;;;;;;-143.84;68.46;45022.41;5048569;28;20485;-54
2023/08/19 01:13:45;;;;;;;11.10;5.33;;;;;;;-143.84;68.83;45028.13;5048835;28;20441;-54
2023/08/19 01:16:22;;;;;;;11.93;5.00;;;;;;;-143.84;69.47;45026.22;5048394;28;20450;-55
2023/08/19 01:18:50;;;;;;;12.23;6.00;;;;;;;-143.84;70.06;45010.97;5048619;28;20889;-55
2023/08/19 01:21:18;;;;;;;12.80;5.43;;;;;;;-143.84;70.15;45030.03;5048586;28;20822;-55
2023/08/19 01:23:49;;;;;;;10.50;5.93;;;;;;;-143.84;70.55;45030.03;5048642;28;20944;-55
2023/08/19 01:26:18;;;;;;;12.40;6.63;;;;;;;-143.84;70.81;45033.84;5049081;28;20437;-55
2023/08/19 01:28:45;;;;;;;11.63;5.87;;;;;;;-143.84;71.07;45016.69;5048759;28;20481;-55
2023/08/19 01:31:12;;;;;;;7.30;6.40;;;;;;;-143.84;71.71;45030.03;5048508;28;20535;-55
2023/08/19 01:33:40;;;;;;;7.23;5.80;;;;;;;-143.84;71.80;45031.94;5048349;28;20439;-55
2023/08/19 01:36:15;;;;;;;9.43;6.87;;;;;;;-143.84;72.09;45022.41;5048628;28;20864;-55
2023/08/19 01:38:48;;;;;;;11.70;5.90;;;;;;;-143.84;73.45;45016.69;5048723;28;20438;-55
2023/08/19 01:41:17;;;;;;;11.77;6.73;;;;;;;-143.84;73.13;45024.31;5048520;28;20556;-55
2023/08/19 01:43:45;;;;;;;11.40;6.70;;;;;;;-143.84;73.76;45024.31;5048763;28;21312;-55
2023/08/19 01:46:13;;;;;;;10.27;5.43;;;;;;;-143.84;73.98;45016.69;5048409;28;20445;-55
2023/08/19 01:48:41;;;;;;;14.17;5.83;;;;;;;-143.84;73.99;45031.94;5048488;28;20448;-55
2023/08/19 01:51:08;;;;;;;10.83;5.60;;;;;;;-143.84;74.58;45028.13;5048451;28;20478;-55
2023/08/19 01:53:35;;;;;;;11.00;6.17;;;;;;;-143.84;73.78;45039.53;5048430;28;20449;-55
2023/08/19 01:56:02;;;;;;;9.50;5.73;;;;;;;-143.84;74.86;45035.75;5048365;28;20434;-55
2023/08/19 01:58:31;;;;;;;7.63;5.73;;;;;;;-143.84;74.33;45035.75;5048258;28;20493;-55
2023/08/19 02:00:58;;;;;;;11.60;6.10;;;;;;;-143.84;74.29;45024.31;5048410;28;20461;-55
2023/08/19 02:03:25;;;;;;;5.60;5.20;;;;;;;-143.84;74.75;45050.97;5048326;28;20506;-55
2023/08/19 02:05:52;;;;;;;7.10;5.53;;;;;;;-143.84;74.72;45014.78;5048302;28;20809;-55
2023/08/19 02:08:19;;;;;;;7.80;6.63;;;;;;;-143.84;74.95;45018.59;5048080;28;20438;-55
2023/08/19 02:10:47;;;;;;;6.50;5.60;;;;;;;-143.84;75.09;45043.34;5048350;28;20829;-55
2023/08/19 02:13:14;;;;;;;8.90;5.20;;;;;;;-143.84;74.90;45043.34;5048174;28;20524;-55
2023/08/19 02:15:42;;;;;;;13.00;6.20;;;;;;;-143.84;75.02;45033.84;5048608;28;20449;-55
2023/08/19 02:18:09;;;;;;;8.40;5.53;;;;;;;-143.84;75.09;45033.84;5048309;28;20450;-55
2023/08/19 02:20:37;;;;;;;8.27;5.27;;;;;;;-143.84;75.52;45026.22;5048018;28;20437;-55
2023/08/19 02:23:04;;;;;;;8.70;5.27;;;;;;;-143.84;75.30;45037.66;5048221;28;21283;-53
2023/08/19 02:25:31;;;;;;;12.53;5.57;;;;;;;-143.84;75.60;45039.53;5048107;28;20480;-53
2023/08/19 02:27:58;;;;;;;7.47;6.00;;;;;;;-143.84;75.53;45016.69;5049851;28;20495;-53
2023/08/19 02:30:25;;;;;;;7.07;4.70;;;;;;;-143.84;75.41;45022.41;5051794;28;20485;-51
2023/08/19 02:32:54;;;;;;;11.87;5.40;;;;;;;-143.84;75.54;45022.41;5052595;28;20440;-53
2023/08/19 02:35:21;;;;;;;6.20;5.60;;;;;;;-143.84;75.50;45049.06;5052864;28;20437;-52
2023/08/19 02:37:48;;;;;;;22.83;6.73;;;;;;;-143.84;75.78;45039.53;5052366;28;20523;-54
2023/08/19 02:40:15;;;;;;;14.53;6.03;;;;;;;-143.84;75.77;45030.03;5052434;28;20450;-53
2023/08/19 02:42:42;;;;;;;6.60;5.47;;;;;;;-143.84;75.82;45031.94;5052403;28;20441;-53
2023/08/19 02:45:10;;;;;;;12.10;5.87;;;;;;;-143.84;76.07;45050.97;5052922;28;20437;-53
2023/08/19 02:47:37;;;;;;;11.13;5.67;;;;;;;-143.84;76.41;45030.03;5052357;28;20438;-53
2023/08/19 02:50:07;;;;;;;8.80;5.83;;;;;;;-143.84;76.49;45020.50;5052249;28;20434;-53
2023/08/19 02:52:34;;;;;;;12.77;5.60;;;;;;;-143.84;77.00;45016.69;5052324;28;20503;-52
2023/08/19 02:55:01;;;;;;;6.70;5.37;;;;;;;-143.84;76.95;45030.03;5052364;28;21276;-53
2023/08/19 02:57:29;;;;;;;13.00;6.00;;;;;;;-143.84;77.09;45037.66;5052081;28;20446;-53
2023/08/19 02:59:56;;;;;;;15.97;6.40;;;;;;;-143.84;77.08;45035.75;5052147;28;20931;-52
2023/08/19 03:02:23;;;;;;;9.43;6.27;;;;;;;-143.84;77.09;45043.34;5052170;28;20495;-52
2023/08/19 03:04:50;;;;;;;9.43;5.43;;;;;;;-143.84;77.29;45016.69;5052085;28;20939;-53
2023/08/19 03:07:19;;;;;;;10.70;4.77;;;;;;;-143.84;77.35;45022.41;5052207;28;20521;-52
2023/08/19 03:09:46;;;;;;;11.20;5.60;;;;;;;-143.84;77.41;45049.06;5052135;28;20912;-53
2023/08/19 03:12:13;;;;;;;6.30;5.70;;;;;;;-143.84;77.83;45033.84;5051954;28;20480;-52
2023/08/19 03:14:40;;;;;;;8.03;5.77;;;;;;;-143.84;77.82;45037.66;5051958;28;20454;-53
2023/08/19 03:17:07;;;;;;;7.60;5.97;;;;;;;-143.84;77.80;45041.44;5052281;28;20434;-53
2023/08/19 03:19:34;;;;;;;8.50;5.67;;;;;;;-143.84;77.91;45047.16;5051821;28;20935;-53
2023/08/19 03:22:01;;;;;;;5.20;4.80;;;;;;;-143.84;77.88;45047.16;5052045;28;20438;-53
2023/08/19 03:24:30;;;;;;;7.93;5.83;;;;;;;-143.84;77.97;45009.09;5051501;28;20434;-52
2023/08/19 03:26:57;;;;;;;6.20;5.53;;;;;;;-143.84;78.16;45031.94;5051820;28;20442;-53
2023/08/19 03:29:25;;;;;;;8.53;5.40;;;;;;;-143.84;77.91;45041.44;5051767;28;20805;-53
2023/08/19 03:31:52;;;;;;;12.70;6.60;;;;;;;-143.84;78.69;45039.53;5052116;28;21272;-53
2023/08/19 03:34:19;;;;;;;10.03;5.80;;;;;;;-143.84;78.66;45012.88;5050996;28;20500;-53
2023/08/19 03:36:48;;;;;;;6.53;5.50;;;;;;;-143.84;78.51;45028.13;5051676;28;20536;-52
2023/08/19 03:39:15;;;;;;;10.10;5.33;;;;;;;-143.84;78.46;45037.66;5050621;28;20446;-53
2023/08/19 03:41:43;;;;;;;6.03;5.40;;;;;;;-143.84;78.51;45043.34;5051157;28;20437;-53
2023/08/19 03:44:10;;;;;;;6.60;5.40;;;;;;;-143.84;78.49;45041.44;5051109;28;20940;-54
2023/08/19 03:46:38;;;;;;;8.27;5.57;;;;;;;-143.84;78.15;45026.22;5051052;28;20430;-53
2023/08/19 03:49:05;;;;;;;7.97;5.43;;;;;;;-143.84;78.40;45064.31;5051206;28;20430;-53
2023/08/19 03:51:32;;;;;;;9.67;5.73;;;;;;;-143.84;77.94;45043.34;5051118;28;20478;-53
2023/08/19 03:53:59;;;;;;;13.33;5.83;;;;;;;-143.84;78.13;45045.25;5051499;28;20848;-53
2023/08/19 03:56:26;;;;;;;11.47;5.30;;;;;;;-143.84;77.85;45014.78;5050904;28;20445;-53
2023/08/19 03:58:55;;;;;;;11.70;5.67;;;;;;;-143.84;75.17;45024.31;5051096;28;20550;-53
2023/08/19 04:01:22;;;;;;;11.30;6.53;;;;;;;-143.84;71.51;45030.03;5050825;28;20442;-54
2023/08/19 04:03:49;;;;;;;12.70;5.60;;;;;;;-143.84;69.65;45012.88;5050941;28;20444;-53
2023/08/19 04:06:16;;;;;;;8.80;5.80;;;;;;;-143.84;69.15;45003.38;5050995;28;21026;-54
2023/08/19 04:08:43;;;;;;;7.67;4.87;;;;;;;-143.84;69.38;45007.19;5051255;28;20445;-53
2023/08/19 04:11:10;;;;;;;12.00;5.23;;;;;;;-143.84;69.42;45016.69;5050991;28;20478;-53
2023/08/19 04:13:38;;;;;;;12.10;5.33;;;;;;;-143.84;67.73;44995.75;5050589;28;21016;-53
2023/08/19 04:16:08;;;;;;;6.50;5.47;;;;;;;-143.84;68.46;45033.84;5050836;28;20434;-52
2023/08/19 04:18:36;;;;;;;7.40;4.90;;;;;;;-143.84;68.74;45018.59;5050796;28;20552;-53
2023/08/19 04:21:05;;;;;;;5.30;4.80;;;;;;;-143.84;69.28;44993.84;5050693;28;20488;-53
2023/08/19 04:23:32;;;;;;;8.67;5.47;;;;;;;-143.84;69.25;45024.31;5050876;28;20517;-53
2023/08/19 04:25:59;;;;;;;12.33;5.77;;;;;;;-143.84;69.10;45016.69;5050575;28;20434;-53
2023/08/19 04:28:26;;;;;;;6.53;5.20;;;;;;;-143.84;69.22;44999.56;5050778;28;20488;-53
2023/08/19 04:30:54;;;;;;;7.70;5.47;;;;;;;-143.84;69.44;45014.78;5050471;28;20488;-53
2023/08/19 04:33:23;;;;;;;5.83;5.33;;;;;;;-143.84;69.18;44999.56;5050650;28;20874;-53
2023/08/19 04:35:50;;;;;;;10.37;5.13;;;;;;;-143.84;67.99;45014.78;5050642;28;20973;-53
2023/08/19 04:38:17;;;;;;;4.87;4.40;;;;;;;-143.84;66.47;45024.31;5050241;28;20442;-53
2023/08/19 04:40:44;;;;;;;10.40;4.90;;;;;;;-143.84;64.80;45007.19;5050587;28;20924;-53
2023/08/19 04:43:12;;;;;;;13.23;4.40;;;;;;;-143.84;62.68;44978.63;5050349;28;20974;-53
2023/08/19 04:45:39;;;;;;;12.33;4.87;;;;;;;-143.84;60.78;44986.22;5050353;28;20866;-52
2023/08/19 04:48:07;;;;;;;14.77;5.10;;;;;;;-143.84;59.43;44969.09;5049879;28;21039;-53
2023/08/19 04:50:35;;;;;;;8.10;4.80;;;;;;;-143.84;57.61;44950.06;5049325;28;20961;-52
2023/08/19 04:53:03;;;;;;;7.63;4.40;;;;;;;-143.84;55.90;44957.66;5050115;28;20495;-53
2023/08/19 04:55:30;;;;;;;7.20;4.23;;;;;;;-143.84;55.53;44953.88;5050467;28;20452;-52
2023/08/19 04:58:00;;;;;;;13.90;3.90;;;;;;;-143.84;53.92;44969.09;5049767;28;20464;-53
2023/08/19 05:00:27;;;;;;;11.10;4.13;;;;;;;-143.84;52.73;44948.16;5050018;28;20481;-53
2023/08/19 05:02:54;;;;;;;11.07;4.90;;;;;;;-143.84;51.29;44959.56;5050022;28;20430;-53
2023/08/19 05:05:21;;;;;;;9.97;4.80;;;;;;;-143.84;50.25;44942.44;5049972;28;20510;-53
2023/08/19 05:07:50;;;;;;;5.83;4.20;;;;;;;-143.84;48.63;44951.97;5049709;28;20821;-53
2023/08/19 05:10:17;;;;;;;4.97;4.40;;;;;;;-143.84;48.55;44955.75;5049838;28;21006;-53
2023/08/19 05:12:44;;;;;;;6.30;4.00;;;;;;;-143.84;48.60;44980.53;5049841;28;20477;-53
2023/08/19 05:15:12;;;;;;;6.60;4.10;;;;;;;-143.84;47.02;44953.88;5049927;28;20867;-53
2023/08/19 05:17:39;;;;;;;7.80;4.00;;;;;;;-143.84;46.71;44942.44;5049650;28;20527;-53
2023/08/19 05:20:07;;;;;;;23.47;3.67;;;;;;;-143.84;45.15;44936.72;5049502;28;20849;-53
2023/08/19 05:22:35;;;;;;;7.97;3.50;;;;;;;-143.84;45.37;44931.00;5049632;28;20429;-53
2023/08/19 05:25:05;;;;;;;4.70;3.40;;;;;;;-143.84;44.13;44923.41;5049733;28;20445;-52
2023/08/19 05:27:32;;;;;;;8.83;4.00;;;;;;;-143.84;43.70;44908.16;5049572;28;20481;-52
2023/08/19 05:30:00;;;;;;;5.40;3.70;;;;;;;-143.84;43.01;44921.50;5049623;28;20525;-53
2023/08/19 05:32:27;;;;;;;9.50;3.70;;;;;;;-143.84;42.31;44887.22;5049579;28;20855;-53
2023/08/19 05:34:54;;;;;;;5.60;3.57;;;;;;;-143.84;42.25;44923.41;5049285;28;20928;-53
2023/08/19 05:37:21;;;;;;;4.27;3.50;;;;;;;-143.84;41.76;44917.69;5049264;28;21180;-53
2023/08/19 05:39:49;;;;;;;5.30;3.60;;;;;;;-143.84;40.60;44904.34;5049421;28;20450;-53
2023/08/19 05:42:18;;;;;;;3.53;3.23;;;;;;;-143.84;41.05;44896.75;5049378;28;20519;-53
2023/08/19 05:44:45;;;;;;;7.83;3.50;;;;;;;-143.84;40.69;44913.88;5049201;28;20449;-53
2023/08/19 05:47:12;;;;;;;4.50;3.60;;;;;;;-143.84;40.88;44910.06;5049449;28;20430;-53
2023/08/19 05:49:39;;;;;;;5.00;3.63;;;;;;;-143.84;40.16;44911.97;5049711;28;20491;-52
2023/08/19 05:52:06;;;;;;;5.13;3.43;;;;;;;-143.84;40.21;44896.75;5049433;28;20481;-52
2023/08/19 05:54:34;;;;;;;8.40;3.80;;;;;;;-143.84;40.42;44940.53;5049115;28;20449;-53
2023/08/19 05:57:01;;;;;;;4.03;3.70;;;;;;;-143.84;40.26;44910.06;5049506;28;20453;-53
2023/08/19 05:59:29;;;;;;;5.73;3.77;;;;;;;-143.84;40.38;44898.66;5049203;28;20489;-53
2023/08/19 06:01:56;;;;;;;9.10;3.97;;;;;;;-143.84;40.12;44940.53;5050959;28;20856;-53
2023/08/19 06:04:24;;;;;;;8.80;3.50;;;;;;;-143.84;39.96;44923.41;5053050;28;20437;-53
2023/08/19 06:06:51;;;;;;;6.60;3.97;;;;;;;-143.84;40.71;44944.34;5052840;28;20927;-51
2023/08/19 06:09:18;;;;;;;6.83;3.43;;;;;;;-143.84;40.36;44932.91;5053109;28;20993;-52
2023/08/19 06:11:49;;;;;;;10.87;4.70;;;;;;;-143.84;40.74;44925.31;5052735;28;20473;-52
2023/08/19 06:14:16;;;;;;;4.17;3.77;;;;;;;-143.84;40.86;44950.06;5053005;28;21279;-52
2023/08/19 06:16:46;;;;;;;5.10;4.33;;;;;;;-143.84;40.39;44923.41;5053071;28;20444;-53
2023/08/19 06:19:14;;;;;;;6.33;4.10;;;;;;;-143.84;40.49;44875.78;5052761;28;20440;-52
2023/08/19 06:21:41;;;;;;;9.73;3.43;;;;;;;-143.84;40.63;44913.88;5052762;28;20448;-53
2023/08/19 06:24:09;;;;;;;4.10;3.60;;;;;;;-143.84;40.25;44900.53;5052427;28;20475;-53
2023/08/19 06:26:36;;;;;;;4.17;3.77;;;;;;;-143.84;40.35;44925.31;5052752;28;20791;-52
2023/08/19 06:29:03;;;;;;;4.67;3.53;;;;;;;-143.84;40.17;44919.59;5052746;28;20501;-53
2023/08/19 06:31:32;;;;;;;11.93;4.10;;;;;;;-143.84;39.29;44885.31;5043670;28;20474;-53
2023/08/19 06:34:02;;;;;;;5.13;3.37;;;;;;;-143.84;39.52;44889.13;5032867;28;20529;-53
2023/08/19 06:36:30;;;;;;;10.00;3.87;;;;;;;-143.84;39.10;44879.59;5032513;28;20530;-54
2023/08/19 06:39:05;;;;;;;7.67;3.80;;;;;;;-143.84;39.13;44896.75;5031953;28;20438;-53
2023/08/19 06:41:35;;;;;;;10.13;4.27;;;;;;;-143.84;39.15;44873.88;5042169;28;20548;-53
2023/08/19 06:44:06;;;;;;;11.53;4.27;;;;;;;-143.84;38.89;44885.31;5051928;28;20446;-53
2023/08/19 06:46:33;;;;;;;5.13;4.27;;;;;;;-143.84;39.15;44851.03;5052081;28;20430;-53
2023/08/19 06:49:03;;;;;;;14.13;3.83;;;;;;;-143.84;38.04;44902.44;5052175;28;20443;-53
2023/08/19 06:51:30;;;;;;;8.20;4.17;;;;;;;-143.84;38.46;44881.50;5051837;28;20956;-52
2023/08/19 06:53:58;;;;;;;9.90;4.03;;;;;;;-143.84;38.28;44862.47;5051758;28;20488;-53
2023/08/19 06:56:32;;;;;;;10.07;4.30;;;;;;;-143.84;38.32;44868.19;5052088;28;20448;-53
2023/08/19 06:59:07;;;;;;;3.77;3.47;;;;;;;-143.84;37.33;44843.44;5051883;28;20988;-53
2023/08/19 07:01:38;;;;;;;9.50;3.80;;;;;;;-143.84;36.97;44811.06;5051912;28;20855;-53
2023/08/19 07:04:08;;;;;;;4.00;3.60;;;;;;;-143.84;37.53;44864.38;5051844;28;20445;-53
2023/08/19 07:06:37;;;;;;;6.20;5.00;;;;;;;-143.84;37.05;44828.19;5051626;28;20449;-53
2023/08/19 07:09:07;;;;;;;6.17;4.20;;;;;;;-143.84;37.35;44837.72;5051670;28;20442;-53
2023/08/19 07:11:34;;;;;;;7.30;4.40;;;;;;;-143.84;37.87;44822.47;5051394;28;20885;-53
2023/08/19 07:14:02;;;;;;;11.00;4.57;;;;;;;-143.84;37.05;44835.81;5048047;28;20460;-53
2023/08/19 07:16:33;;;;;;;19.47;4.60;;;;;;;-143.84;37.40;44847.22;5051297;28;20456;-53
2023/08/19 07:19:06;;;;;;;6.27;3.53;;;;;;;-143.84;38.43;44885.31;5049123;28;20454;-52
2023/08/19 07:21:36;;;;;;;18.53;4.13;;;;;;;-143.84;38.72;44843.44;5049900;28;21198;-54
2023/08/19 07:24:04;;;;;;;10.20;4.63;;;;;;;-143.84;39.06;44879.59;5053367;28;20476;-53
2023/08/19 07:26:33;;;;;;;6.73;4.50;;;;;;;-143.84;38.74;44833.91;5057927;28;21008;-53
2023/08/19 07:29:01;;;;;;;5.17;4.47;;;;;;;-143.84;38.63;44866.28;5054375;28;20433;-53
2023/08/19 07:31:28;;;;;;;10.53;4.37;;;;;;;-143.84;38.44;44847.22;5058360;28;20810;-53
2023/08/19 07:33:56;;;;;;;5.10;4.60;;;;;;;-143.84;38.13;44818.66;5071118;28;20443;-53
2023/08/19 07:36:22;;;;;;;4.90;3.87;;;;;;;-143.84;38.02;44870.09;5070834;28;20880;-52
2023/08/19 07:38:51;;;;;;;9.40;4.10;;;;;;;-143.84;38.05;44841.53;5071193;28;20506;-53
2023/08/19 07:41:19;;;;;;;6.60;4.40;;;;;;;-143.84;37.37;44847.22;5070951;28;20440;-53
2023/08/19 07:43:47;;;;;;;8.80;4.10;;;;;;;-143.84;37.53;44812.97;5070782;28;20448;-51
2023/08/19 07:46:15;;;;;;;7.87;3.93;;;;;;;-143.84;38.04;44854.84;5070981;28;20838;-50
2023/08/19 07:48:43;;;;;;;5.17;3.80;;;;;;;-143.84;38.58;44858.66;5070645;28;20490;-50
2023/08/19 07:51:10;;;;;;;7.53;4.33;;;;;;;-143.84;39.62;44868.19;5070331;28;20445;-50
2023/08/19 07:53:37;;;;;;;39.03;9.30;;;;;;;-143.84;39.97;44870.09;5070421;28;20484;-50
2023/08/19 07:56:06;;;;;;;6.47;4.63;;;;;;;-143.84;39.62;44847.22;5070312;28;20857;-51
2023/08/19 07:58:33;;;;;;;9.23;4.20;;;;;;;-143.84;40.01;44856.75;5070405;28;21016;-51
2023/08/19 08:01:01;;;;;;;3.93;3.63;;;;;;;-143.84;39.84;44830.09;5070698;28;20954;-51
2023/08/19 08:03:28;;;;;;;9.73;4.70;;;;;;;-143.84;39.50;44837.72;5070544;28;20444;-50
2023/08/19 08:05:55;;;;;;;6.43;4.27;;;;;;;-143.84;38.68;44833.91;5070591;28;20448;-51
2023/08/19 08:08:22;;;;;;;7.43;3.93;;;;;;;-143.84;39.02;44868.19;5070697;28;20448;-51
2023/08/19 08:10:53;;;;;;;6.90;4.53;;;;;;;-143.84;38.13;44851.03;5070325;28;21323;-51
2023/08/19 08:13:21;;;;;;;8.00;4.70;;;;;;;-143.84;38.06;44830.09;5069947;28;20476;-50
2023/08/19 08:15:49;;;;;;;10.70;4.33;;;;;;;-143.84;37.21;44864.38;5069938;28;20433;-49
2023/08/19 08:18:16;;;;;;;6.20;4.10;;;;;;;-143.84;37.24;44854.84;5070282;28;20903;-49
2023/08/19 08:20:44;;;;;;;5.83;3.70;;;;;;;-143.84;37.14;44849.13;5069686;28;20490;-51
2023/08/19 08:23:11;;;;;;;8.07;4.23;;;;;;;-143.84;37.25;44837.72;5045202;28;20442;-51
2023/08/19 08:25:38;;;;;;;5.03;3.70;;;;;;;-143.84;37.33;44849.13;5047294;28;20434;-50
2023/08/19 08:28:06;;;;;;;6.60;4.30;;;;;;;-143.84;36.93;44896.75;5050084;28;20465;-50
2023/08/19 08:30:35;;;;;;;5.57;3.63;;;;;;;-143.84;37.47;44868.19;5050329;28;20457;-51
2023/08/19 08:33:02;;;;;;;4.37;3.90;;;;;;;-143.84;37.15;44871.97;5050161;28;20539;-51
2023/08/19 08:35:30;;;;;;;4.37;3.80;;;;;;;-143.84;37.55;44879.59;5049988;28;20537;-50
2023/08/19 08:37:57;;;;;;;5.40;3.87;;;;;;;-143.84;37.56;44854.84;5050073;28;21252;-50
2023/08/19 08:40:24;;;;;;;7.17;4.20;;;;;;;-143.84;36.68;44854.84;5049912;28;20442;-49
2023/08/19 08:42:52;;;;;;;6.77;4.00;;;;;;;-143.84;36.48;44852.94;5046537;28;20936;-50
2023/08/19 08:45:21;;;;;;;6.70;3.63;;;;;;;-143.84;36.62;44832.00;5049910;28;20896;-50
2023/08/19 08:47:51;;;;;;;6.50;3.97;;;;;;;-143.84;36.11;44841.53;5049818;28;20434;-50
2023/08/19 08:50:18;;;;;;;7.07;3.33;;;;;;;-143.84;35.46;44866.28;5049827;28;20453;-50
2023/08/19 08:52:47;;;;;;;3.60;3.40;;;;;;;-143.84;35.95;44866.28;5049562;28;20485;-50
2023/08/19 08:55:15;;;;;;;4.00;3.70;;;;;;;-143.84;35.59;44854.84;5049796;28;20437;-51
2023/08/19 08:57:42;;;;;;;4.97;4.30;;;;;;;-143.84;35.55;44873.88;5049547;28;20437;-50
2023/08/19 09:00:11;;;;;;;5.47;3.60;;;;;;;-143.84;35.68;44854.84;5040968;28;20502;-50
2023/08/19 09:02:40;;;;;;;7.20;4.10;;;;;;;-143.84;36.35;44833.91;5040184;28;20444;-51
2023/08/19 09:05:11;;;;;;;6.90;5.20;;;;;;;-143.84;35.81;44832.00;5040665;28;20457;-50
2023/08/19 09:07:40;;;;;;;4.77;4.03;;;;;;;-143.84;35.16;44820.56;5047556;28;20527;-51
2023/08/19 09:10:12;;;;;;;7.20;4.63;;;;;;;-143.84;34.64;44822.47;5049904;28;20537;-50
2023/08/19 09:12:41;;;;;;;7.17;4.17;;;;;;;-143.84;34.94;44875.78;5048923;28;20553;-51
2023/08/19 09:15:11;;;;;;;9.20;4.80;;;;;;;-143.84;34.31;44856.75;5043910;28;20450;-50
2023/08/19 09:17:39;;;;;;;4.90;4.10;;;;;;;-143.84;34.24;44862.47;5045116;28;20484;-50
2023/08/19 09:20:09;;;;;;;4.70;4.30;;;;;;;-143.84;33.92;44854.84;5049522;28;20468;-50
2023/08/19 09:22:42;;;;;;;9.93;4.60;;;;;;;-143.84;34.31;44839.63;5049702;28;20512;-50
2023/08/19 09:25:14;;;;;;;13.30;4.50;;;;;;;-143.84;33.80;44832.00;5049483;28;20903;-51
2023/08/19 09:27:41;;;;;;;12.73;4.93;;;;;;;-143.84;33.54;44841.53;5048859;28;20517;-51
2023/08/19 09:30:09;;;;;;;5.63;4.70;;;;;;;-143.84;33.85;44858.66;5049621;28;20449;-50
2023/08/19 09:32:38;;;;;;;5.37;4.87;;;;;;;-143.84;33.46;44824.38;5049124;28;20978;-51
2023/08/19 09:35:08;;;;;;;5.80;4.13;;;;;;;-143.84;33.60;44816.78;5049792;28;20481;-50
2023/08/19 09:37:37;;;;;;;7.43;4.40;;;;;;;-143.84;33.29;44828.19;5052639;28;20923;-50
2023/08/19 09:40:10;;;;;;;4.70;4.23;;;;;;;-143.84;33.31;44797.72;5053762;28;20445;-50
2023/08/19 09:42:38;;;;;;;7.00;4.77;;;;;;;-143.84;33.71;44843.44;5052865;28;20441;-50
2023/08/19 09:45:06;;;;;;;5.47;4.70;;;;;;;-143.84;33.31;44812.97;5053386;28;20536;-50
2023/08/19 09:47:46;;;;;;;13.93;4.70;;;;;;;-143.84;33.23;44843.44;5052998;28;20441;-50
2023/08/19 09:50:14;;;;;;;5.40;4.13;;;;;;;-143.84;34.05;44824.38;5053872;28;20497;-50
2023/08/19 09:52:42;;;;;;;4.90;3.97;;;;;;;-143.84;33.02;44832.00;5052911;28;20481;-50
2023/08/19 09:55:09;;;;;;;3.97;3.63;;;;;;;-143.84;32.89;44832.00;5053101;28;20472;-51
2023/08/19 09:57:37;;;;;;;7.30;4.03;;;;;;;-143.84;33.35;44812.97;5052377;28;20442;-50
2023/08/19 10:00:05;;;;;;;8.20;3.80;;;;;;;-143.84;33.48;44809.16;5052882;28;20534;-50
2023/08/19 10:02:34;;;;;;;6.20;3.90;;;;;;;-143.84;33.68;44801.53;5052833;28;20465;-50
2023/08/19 10:05:02;;;;;;;6.90;3.83;;;;;;;-143.84;33.51;44811.06;5053068;28;20465;-50
2023/08/19 10:07:32;;;;;;;4.23;3.83;;;;;;;-143.84;33.51;44826.28;5052973;28;20437;-51
2023/08/19 10:10:04;;;;;;;7.03;4.23;;;;;;;-143.84;33.54;44820.56;5052954;28;20503;-50
2023/08/19 10:12:35;;;;;;;9.20;4.13;;;;;;;-143.84;33.51;44786.31;5052006;28;20499;-53
2023/08/19 10:15:03;;;;;;;9.93;4.00;;;;;;;-143.84;33.42;44820.56;5052773;28;20433;-53
2023/08/19 10:17:33;;;;;;;4.67;3.67;;;;;;;-143.84;33.63;44814.88;5052640;28;20461;-53
2023/08/19 10:20:07;;;;;;;13.63;3.90;;;;;;;-143.84;33.60;44811.06;5052706;28;20536;-52
2023/08/19 10:22:37;;;;;;;8.00;4.00;;;;;;;-143.84;33.76;44826.28;5052578;28;20440;-52
2023/08/19 10:25:08;;;;;;;11.03;4.80;;;;;;;-143.84;34.31;44843.44;5048180;28;20457;-53
2023/08/19 10:27:36;;;;;;;4.30;3.90;;;;;;;-143.84;34.67;44837.72;5050438;28;20450;-53
2023/08/19 10:30:28;;;;;;;9.47;4.10;;;;;;;-143.84;35.35;44830.09;5050642;28;20445;-53
2023/08/19 10:32:55;;;;;;;7.03;4.23;;;;;;;-143.84;36.01;44843.44;5050912;28;20525;-52
2023/08/19 10:35:23;;;;;;;8.83;4.20;;;;;;;-143.84;34.99;44841.53;5051250;28;20452;-50
2023/08/19 10:37:50;;;;;;;23.17;5.23;;;;;;;-143.84;34.68;44851.03;5054912;28;20472;-50
2023/08/19 10:40:22;;;;;;;6.00;4.40;;;;;;;-143.84;34.85;44849.13;5053220;28;20449;-50
2023/08/19 10:42:57;;;;;;;7.00;4.53;;;;;;;-143.84;34.85;44843.44;5050316;28;20446;-50
2023/08/19 10:45:31;;;;;;;10.10;4.57;;;;;;;-143.84;35.92;44832.00;5051795;28;20453;-50
2023/08/19 10:47:58;;;;;;;12.97;4.43;;;;;;;-143.84;35.28;44862.47;5048225;28;20450;-49
2023/08/19 10:50:26;;;;;;;5.47;4.93;;;;;;;-143.84;35.28;44830.09;5052421;28;20511;-50
2023/08/19 10:53:04;;;;;;;6.00;4.60;;;;;;;-143.84;34.75;44851.03;5051631;28;20477;-50
2023/08/19 10:55:53;;;;;;;5.80;4.40;;;;;;;-143.84;34.82;44856.75;5051444;28;20453;-50
2023/08/19 10:58:22;;;;;;;5.00;4.50;;;;;;;-143.84;34.96;44854.84;5043228;28;21021;-53
2023/08/19 11:00:50;;;;;;;7.30;4.30;;;;;;;-143.84;35.35;44849.13;5049526;28;20453;-52
2023/08/19 11:03:18;;;;;;;9.23;4.23;;;;;;;-143.84;35.00;44843.44;5053769;28;20454;-52
2023/08/19 11:05:52;;;;;;;7.83;4.73;;;;;;;-143.84;35.03;44837.72;5048022;28;20446;-52
2023/08/19 11:08:20;;;;;;;6.57;3.97;;;;;;;-143.84;35.41;44866.28;5051651;28;20447;-52
2023/08/19 11:10:47;;;;;;;5.47;4.27;;;;;;;-143.84;35.21;44839.63;5052101;28;20440;-52
2023/08/19 11:13:17;;;;;;;7.20;4.40;;;;;;;-143.84;34.94;44871.97;5047777;28;20477;-54
2023/08/19 11:15:44;;;;;;;4.60;3.80;;;;;;;-143.84;35.63;44843.44;5051849;28;20541;-54
2023/08/19 11:18:20;;;;;;;7.57;4.40;;;;;;;-143.84;35.54;44818.66;5059067;28;20445;-54
2023/08/19 11:20:47;;;;;;;5.73;4.10;;;;;;;-143.84;35.79;44839.63;5043270;28;20438;-54